sensor_id;sensor_type;location;lat;lon;timestamp;P1;durP1;ratioP1;P2;durP2;ratioP2
3993;SDS011;2011;48.238;13.948;2023-04-24T00:00:53;4.93;;;2.60;;
3993;SDS011;2011;48.238;13.948;2023-04-24T00:03:21;13.20;;;3.07;;
3993;SDS011;2011;48.238;13.948;2023-04-24T00:05:50;9.60;;;3.40;;
3993;SDS011;2011;48.238;13.948;2023-04-24T00:08:17;6.53;;;3.90;;
3993;SDS011;2011;48.238;13.948;2023-04-24T00:10:44;9.33;;;4.50;;
3993;SDS011;2011;48.238;13.948;2023-04-24T00:13:11;7.77;;;4.13;;
3993;SDS011;2011;48.238;13.948;2023-04-24T00:15:38;5.83;;;4.10;;
3993;SDS011;2011;48.238;13.948;2023-04-24T00:18:05;5.63;;;3.70;;
3993;SDS011;2011;48.238;13.948;2023-04-24T00:20:32;4.57;;;2.60;;
3993;SDS011;2011;48.238;13.948;2023-04-24T00:23:02;5.30;;;3.10;;
3993;SDS011;2011;48.238;13.948;2023-04-24T00:25:29;5.67;;;2.40;;
3993;SDS011;2011;48.238;13.948;2023-04-24T00:27:56;4.33;;;2.33;;
3993;SDS011;2011;48.238;13.948;2023-04-24T00:30:23;6.57;;;2.80;;
3993;SDS011;2011;48.238;13.948;2023-04-24T00:32:50;5.30;;;2.60;;
3993;SDS011;2011;48.238;13.948;2023-04-24T00:35:17;4.43;;;2.50;;
3993;SDS011;2011;48.238;13.948;2023-04-24T00:37:45;8.93;;;2.63;;
3993;SDS011;2011;48.238;13.948;2023-04-24T00:40:13;7.47;;;2.67;;
3993;SDS011;2011;48.238;13.948;2023-04-24T00:42:40;5.53;;;2.73;;
3993;SDS011;2011;48.238;13.948;2023-04-24T00:45:08;8.13;;;2.83;;
3993;SDS011;2011;48.238;13.948;2023-04-24T00:47:36;6.97;;;2.77;;
3993;SDS011;2011;48.238;13.948;2023-04-24T00:50:03;4.50;;;2.40;;
3993;SDS011;2011;48.238;13.948;2023-04-24T00:52:31;4.30;;;2.50;;
3993;SDS011;2011;48.238;13.948;2023-04-24T00:54:58;3.97;;;2.60;;
3993;SDS011;2011;48.238;13.948;2023-04-24T00:57:27;6.53;;;2.60;;
3993;SDS011;2011;48.238;13.948;2023-04-24T00:59:54;8.47;;;2.33;;
3993;SDS011;2011;48.238;13.948;2023-04-24T01:02:21;5.10;;;2.70;;
3993;SDS011;2011;48.238;13.948;2023-04-24T01:04:49;12.13;;;2.63;;
3993;SDS011;2011;48.238;13.948;2023-04-24T01:07:17;5.43;;;2.20;;
3993;SDS011;2011;48.238;13.948;2023-04-24T01:09:46;6.47;;;2.87;;
3993;SDS011;2011;48.238;13.948;2023-04-24T01:12:16;6.90;;;2.80;;
3993;SDS011;2011;48.238;13.948;2023-04-24T01:14:45;3.63;;;2.47;;
3993;SDS011;2011;48.238;13.948;2023-04-24T01:17:12;5.93;;;2.97;;
3993;SDS011;2011;48.238;13.948;2023-04-24T01:19:40;3.70;;;2.50;;
3993;SDS011;2011;48.238;13.948;2023-04-24T01:22:11;3.90;;;2.60;;
3993;SDS011;2011;48.238;13.948;2023-04-24T01:24:39;6.70;;;2.70;;
3993;SDS011;2011;48.238;13.948;2023-04-24T01:27:07;8.10;;;2.90;;
3993;SDS011;2011;48.238;13.948;2023-04-24T01:29:35;6.67;;;2.83;;
3993;SDS011;2011;48.238;13.948;2023-04-24T01:32:02;4.90;;;2.53;;
3993;SDS011;2011;48.238;13.948;2023-04-24T01:34:30;4.37;;;2.27;;
3993;SDS011;2011;48.238;13.948;2023-04-24T01:36:58;4.70;;;2.10;;
3993;SDS011;2011;48.238;13.948;2023-04-24T01:39:27;5.60;;;2.57;;
3993;SDS011;2011;48.238;13.948;2023-04-24T01:41:54;5.93;;;2.40;;
3993;SDS011;2011;48.238;13.948;2023-04-24T01:44:21;9.50;;;2.50;;
3993;SDS011;2011;48.238;13.948;2023-04-24T01:46:48;6.00;;;2.53;;
3993;SDS011;2011;48.238;13.948;2023-04-24T01:49:15;3.63;;;2.57;;
3993;SDS011;2011;48.238;13.948;2023-04-24T01:51:42;3.50;;;2.17;;
3993;SDS011;2011;48.238;13.948;2023-04-24T01:54:09;4.50;;;2.73;;
3993;SDS011;2011;48.238;13.948;2023-04-24T01:56:38;4.00;;;2.30;;
3993;SDS011;2011;48.238;13.948;2023-04-24T01:59:08;4.37;;;2.30;;
3993;SDS011;2011;48.238;13.948;2023-04-24T02:01:36;5.90;;;2.23;;
3993;SDS011;2011;48.238;13.948;2023-04-24T02:04:04;5.13;;;2.10;;
3993;SDS011;2011;48.238;13.948;2023-04-24T02:06:32;4.77;;;2.50;;
3993;SDS011;2011;48.238;13.948;2023-04-24T02:08:59;3.87;;;2.40;;
3993;SDS011;2011;48.238;13.948;2023-04-24T02:11:26;4.40;;;2.60;;
3993;SDS011;2011;48.238;13.948;2023-04-24T02:13:54;6.30;;;2.50;;
3993;SDS011;2011;48.238;13.948;2023-04-24T02:16:21;9.50;;;2.63;;
3993;SDS011;2011;48.238;13.948;2023-04-24T02:18:48;5.57;;;3.00;;
3993;SDS011;2011;48.238;13.948;2023-04-24T02:21:16;8.00;;;2.80;;
3993;SDS011;2011;48.238;13.948;2023-04-24T02:23:43;10.20;;;3.40;;
3993;SDS011;2011;48.238;13.948;2023-04-24T02:26:10;11.33;;;3.07;;
3993;SDS011;2011;48.238;13.948;2023-04-24T02:28:37;4.40;;;3.17;;
3993;SDS011;2011;48.238;13.948;2023-04-24T02:31:05;6.47;;;3.40;;
3993;SDS011;2011;48.238;13.948;2023-04-24T02:33:32;11.53;;;3.47;;
3993;SDS011;2011;48.238;13.948;2023-04-24T02:36:00;6.07;;;3.87;;
3993;SDS011;2011;48.238;13.948;2023-04-24T02:38:27;5.87;;;4.40;;
3993;SDS011;2011;48.238;13.948;2023-04-24T02:40:55;8.97;;;4.17;;
3993;SDS011;2011;48.238;13.948;2023-04-24T02:43:22;5.33;;;4.10;;
3993;SDS011;2011;48.238;13.948;2023-04-24T02:45:52;9.37;;;4.40;;
3993;SDS011;2011;48.238;13.948;2023-04-24T02:48:20;7.10;;;4.10;;
3993;SDS011;2011;48.238;13.948;2023-04-24T02:50:47;5.37;;;4.00;;
3993;SDS011;2011;48.238;13.948;2023-04-24T02:53:14;6.37;;;4.10;;
3993;SDS011;2011;48.238;13.948;2023-04-24T02:55:41;5.63;;;4.20;;
3993;SDS011;2011;48.238;13.948;2023-04-24T02:58:08;6.60;;;4.10;;
3993;SDS011;2011;48.238;13.948;2023-04-24T03:00:35;4.87;;;3.90;;
3993;SDS011;2011;48.238;13.948;2023-04-24T03:03:02;6.30;;;4.10;;
3993;SDS011;2011;48.238;13.948;2023-04-24T03:05:32;7.47;;;4.90;;
3993;SDS011;2011;48.238;13.948;2023-04-24T03:07:59;6.87;;;4.67;;
3993;SDS011;2011;48.238;13.948;2023-04-24T03:10:26;9.67;;;4.80;;
3993;SDS011;2011;48.238;13.948;2023-04-24T03:12:53;8.80;;;5.00;;
3993;SDS011;2011;48.238;13.948;2023-04-24T03:15:20;6.40;;;4.70;;
3993;SDS011;2011;48.238;13.948;2023-04-24T03:17:47;6.57;;;4.70;;
3993;SDS011;2011;48.238;13.948;2023-04-24T03:20:15;10.70;;;4.50;;
3993;SDS011;2011;48.238;13.948;2023-04-24T03:22:43;6.43;;;4.20;;
3993;SDS011;2011;48.238;13.948;2023-04-24T03:25:10;6.40;;;3.90;;
3993;SDS011;2011;48.238;13.948;2023-04-24T03:27:37;8.70;;;3.27;;
3993;SDS011;2011;48.238;13.948;2023-04-24T03:30:05;4.43;;;3.33;;
3993;SDS011;2011;48.238;13.948;2023-04-24T03:32:33;3.27;;;2.50;;
3993;SDS011;2011;48.238;13.948;2023-04-24T03:35:00;5.90;;;3.20;;
3993;SDS011;2011;48.238;13.948;2023-04-24T03:37:28;5.30;;;3.57;;
3993;SDS011;2011;48.238;13.948;2023-04-24T03:39:57;6.80;;;3.23;;
3993;SDS011;2011;48.238;13.948;2023-04-24T03:42:24;4.57;;;2.70;;
3993;SDS011;2011;48.238;13.948;2023-04-24T03:44:51;4.80;;;2.60;;
3993;SDS011;2011;48.238;13.948;2023-04-24T03:47:18;6.00;;;2.90;;
3993;SDS011;2011;48.238;13.948;2023-04-24T03:49:45;3.70;;;1.87;;
3993;SDS011;2011;48.238;13.948;2023-04-24T03:52:12;3.10;;;1.83;;
3993;SDS011;2011;48.238;13.948;2023-04-24T03:54:39;4.80;;;2.20;;
3993;SDS011;2011;48.238;13.948;2023-04-24T03:57:07;4.50;;;2.00;;
3993;SDS011;2011;48.238;13.948;2023-04-24T03:59:34;3.23;;;2.10;;
3993;SDS011;2011;48.238;13.948;2023-04-24T04:02:01;4.50;;;2.00;;
3993;SDS011;2011;48.238;13.948;2023-04-24T04:04:28;4.77;;;2.70;;
3993;SDS011;2011;48.238;13.948;2023-04-24T04:06:55;3.90;;;1.80;;
3993;SDS011;2011;48.238;13.948;2023-04-24T04:09:26;5.50;;;2.13;;
3993;SDS011;2011;48.238;13.948;2023-04-24T04:11:53;2.70;;;1.90;;
3993;SDS011;2011;48.238;13.948;2023-04-24T04:14:22;2.80;;;1.97;;
3993;SDS011;2011;48.238;13.948;2023-04-24T04:16:49;3.50;;;2.30;;
3993;SDS011;2011;48.238;13.948;2023-04-24T04:19:16;2.57;;;1.87;;
3993;SDS011;2011;48.238;13.948;2023-04-24T04:21:43;3.40;;;1.90;;
3993;SDS011;2011;48.238;13.948;2023-04-24T04:24:10;2.70;;;1.90;;
3993;SDS011;2011;48.238;13.948;2023-04-24T04:26:38;3.37;;;1.93;;
3993;SDS011;2011;48.238;13.948;2023-04-24T04:29:05;4.87;;;3.37;;
3993;SDS011;2011;48.238;13.948;2023-04-24T04:31:34;4.53;;;2.80;;
3993;SDS011;2011;48.238;13.948;2023-04-24T04:34:01;4.40;;;2.43;;
3993;SDS011;2011;48.238;13.948;2023-04-24T04:36:28;3.77;;;2.43;;
3993;SDS011;2011;48.238;13.948;2023-04-24T04:38:56;6.13;;;2.60;;
3993;SDS011;2011;48.238;13.948;2023-04-24T04:41:24;4.47;;;2.40;;
3993;SDS011;2011;48.238;13.948;2023-04-24T04:43:51;3.20;;;2.10;;
3993;SDS011;2011;48.238;13.948;2023-04-24T04:46:18;3.33;;;1.50;;
3993;SDS011;2011;48.238;13.948;2023-04-24T04:48:47;2.70;;;1.80;;
3993;SDS011;2011;48.238;13.948;2023-04-24T04:51:14;3.40;;;1.93;;
3993;SDS011;2011;48.238;13.948;2023-04-24T04:53:41;2.77;;;1.70;;
3993;SDS011;2011;48.238;13.948;2023-04-24T04:56:08;2.20;;;1.47;;
3993;SDS011;2011;48.238;13.948;2023-04-24T04:58:35;2.03;;;1.37;;
3993;SDS011;2011;48.238;13.948;2023-04-24T05:01:02;2.70;;;1.40;;
3993;SDS011;2011;48.238;13.948;2023-04-24T05:03:30;2.80;;;1.60;;
3993;SDS011;2011;48.238;13.948;2023-04-24T05:05:58;2.97;;;1.57;;
3993;SDS011;2011;48.238;13.948;2023-04-24T05:08:25;3.90;;;1.67;;
3993;SDS011;2011;48.238;13.948;2023-04-24T05:10:52;2.60;;;1.50;;
3993;SDS011;2011;48.238;13.948;2023-04-24T05:13:19;3.70;;;1.70;;
3993;SDS011;2011;48.238;13.948;2023-04-24T05:15:47;2.10;;;1.20;;
3993;SDS011;2011;48.238;13.948;2023-04-24T05:18:14;2.03;;;1.27;;
3993;SDS011;2011;48.238;13.948;2023-04-24T05:20:41;2.03;;;1.20;;
3993;SDS011;2011;48.238;13.948;2023-04-24T05:23:10;2.17;;;1.30;;
3993;SDS011;2011;48.238;13.948;2023-04-24T05:25:37;3.43;;;1.40;;
3993;SDS011;2011;48.238;13.948;2023-04-24T05:28:05;2.77;;;1.40;;
3993;SDS011;2011;48.238;13.948;2023-04-24T05:30:32;4.83;;;1.67;;
3993;SDS011;2011;48.238;13.948;2023-04-24T05:32:59;2.23;;;1.27;;
3993;SDS011;2011;48.238;13.948;2023-04-24T05:35:26;2.03;;;1.20;;
3993;SDS011;2011;48.238;13.948;2023-04-24T05:37:53;2.50;;;1.30;;
3993;SDS011;2011;48.238;13.948;2023-04-24T05:40:21;2.70;;;1.27;;
3993;SDS011;2011;48.238;13.948;2023-04-24T05:42:48;2.00;;;1.20;;
3993;SDS011;2011;48.238;13.948;2023-04-24T05:45:16;2.30;;;1.30;;
3993;SDS011;2011;48.238;13.948;2023-04-24T05:47:43;3.10;;;1.30;;
3993;SDS011;2011;48.238;13.948;2023-04-24T05:50:10;2.47;;;1.30;;
3993;SDS011;2011;48.238;13.948;2023-04-24T05:52:37;2.23;;;1.20;;
3993;SDS011;2011;48.238;13.948;2023-04-24T05:55:04;3.07;;;1.30;;
3993;SDS011;2011;48.238;13.948;2023-04-24T05:57:34;2.67;;;1.30;;
3993;SDS011;2011;48.238;13.948;2023-04-24T06:00:00;4.03;;;1.40;;
3993;SDS011;2011;48.238;13.948;2023-04-24T06:02:29;2.40;;;1.23;;
3993;SDS011;2011;48.238;13.948;2023-04-24T06:04:57;5.10;;;1.37;;
3993;SDS011;2011;48.238;13.948;2023-04-24T06:07:25;1.40;;;1.00;;
3993;SDS011;2011;48.238;13.948;2023-04-24T06:09:52;2.73;;;1.47;;
3993;SDS011;2011;48.238;13.948;2023-04-24T06:12:19;2.00;;;1.17;;
3993;SDS011;2011;48.238;13.948;2023-04-24T06:14:47;3.70;;;1.20;;
3993;SDS011;2011;48.238;13.948;2023-04-24T06:17:15;6.07;;;1.40;;
3993;SDS011;2011;48.238;13.948;2023-04-24T06:19:42;4.80;;;1.20;;
3993;SDS011;2011;48.238;13.948;2023-04-24T06:22:09;4.50;;;1.30;;
3993;SDS011;2011;48.238;13.948;2023-04-24T06:24:36;2.70;;;1.30;;
3993;SDS011;2011;48.238;13.948;2023-04-24T06:27:03;2.03;;;1.30;;
3993;SDS011;2011;48.238;13.948;2023-04-24T06:29:30;2.40;;;1.13;;
3993;SDS011;2011;48.238;13.948;2023-04-24T06:31:58;2.07;;;1.20;;
3993;SDS011;2011;48.238;13.948;2023-04-24T06:34:25;2.90;;;1.30;;
3993;SDS011;2011;48.238;13.948;2023-04-24T06:36:52;2.90;;;1.40;;
3993;SDS011;2011;48.238;13.948;2023-04-24T06:39:20;3.23;;;1.23;;
3993;SDS011;2011;48.238;13.948;2023-04-24T06:41:47;2.23;;;1.10;;
3993;SDS011;2011;48.238;13.948;2023-04-24T06:44:14;1.87;;;1.20;;
3993;SDS011;2011;48.238;13.948;2023-04-24T06:46:41;3.80;;;1.30;;
3993;SDS011;2011;48.238;13.948;2023-04-24T06:49:10;2.30;;;1.40;;
3993;SDS011;2011;48.238;13.948;2023-04-24T06:51:36;2.00;;;1.03;;
3993;SDS011;2011;48.238;13.948;2023-04-24T06:54:04;3.87;;;1.20;;
3993;SDS011;2011;48.238;13.948;2023-04-24T06:56:31;4.23;;;1.13;;
3993;SDS011;2011;48.238;13.948;2023-04-24T06:58:59;2.37;;;1.40;;
3993;SDS011;2011;48.238;13.948;2023-04-24T07:01:26;2.23;;;1.33;;
3993;SDS011;2011;48.238;13.948;2023-04-24T07:03:53;1.80;;;1.20;;
3993;SDS011;2011;48.238;13.948;2023-04-24T07:06:21;2.83;;;1.23;;
3993;SDS011;2011;48.238;13.948;2023-04-24T07:08:49;4.60;;;1.63;;
3993;SDS011;2011;48.238;13.948;2023-04-24T07:11:16;3.60;;;1.40;;
3993;SDS011;2011;48.238;13.948;2023-04-24T07:13:43;3.17;;;1.37;;
3993;SDS011;2011;48.238;13.948;2023-04-24T07:16:10;3.80;;;1.67;;
3993;SDS011;2011;48.238;13.948;2023-04-24T07:18:37;3.20;;;1.63;;
3993;SDS011;2011;48.238;13.948;2023-04-24T07:21:05;2.70;;;1.50;;
3993;SDS011;2011;48.238;13.948;2023-04-24T07:23:33;11.63;;;4.60;;
3993;SDS011;2011;48.238;13.948;2023-04-24T07:26:00;4.30;;;1.50;;
3993;SDS011;2011;48.238;13.948;2023-04-24T07:28:27;3.63;;;1.30;;
3993;SDS011;2011;48.238;13.948;2023-04-24T07:30:56;3.03;;;1.50;;
3993;SDS011;2011;48.238;13.948;2023-04-24T07:33:23;2.73;;;1.40;;
3993;SDS011;2011;48.238;13.948;2023-04-24T07:35:50;4.20;;;1.60;;
3993;SDS011;2011;48.238;13.948;2023-04-24T07:38:17;3.10;;;1.37;;
3993;SDS011;2011;48.238;13.948;2023-04-24T07:40:48;6.00;;;1.40;;
3993;SDS011;2011;48.238;13.948;2023-04-24T07:43:15;2.40;;;1.43;;
3993;SDS011;2011;48.238;13.948;2023-04-24T07:45:42;6.73;;;1.37;;
3993;SDS011;2011;48.238;13.948;2023-04-24T07:48:09;1.70;;;1.20;;
3993;SDS011;2011;48.238;13.948;2023-04-24T07:50:36;2.00;;;1.20;;
3993;SDS011;2011;48.238;13.948;2023-04-24T07:53:02;2.73;;;1.30;;
3993;SDS011;2011;48.238;13.948;2023-04-24T07:55:29;2.70;;;1.57;;
3993;SDS011;2011;48.238;13.948;2023-04-24T07:57:58;2.17;;;1.23;;
3993;SDS011;2011;48.238;13.948;2023-04-24T08:00:25;5.10;;;1.40;;
3993;SDS011;2011;48.238;13.948;2023-04-24T08:02:53;2.80;;;1.20;;
3993;SDS011;2011;48.238;13.948;2023-04-24T08:05:20;3.00;;;1.50;;
3993;SDS011;2011;48.238;13.948;2023-04-24T08:07:47;2.87;;;1.30;;
3993;SDS011;2011;48.238;13.948;2023-04-24T08:10:15;3.50;;;1.60;;
3993;SDS011;2011;48.238;13.948;2023-04-24T08:12:42;3.00;;;1.47;;
3993;SDS011;2011;48.238;13.948;2023-04-24T08:15:11;2.70;;;1.40;;
3993;SDS011;2011;48.238;13.948;2023-04-24T08:17:38;4.90;;;1.50;;
3993;SDS011;2011;48.238;13.948;2023-04-24T08:20:05;4.50;;;1.47;;
3993;SDS011;2011;48.238;13.948;2023-04-24T08:22:38;3.83;;;1.30;;
3993;SDS011;2011;48.238;13.948;2023-04-24T08:25:05;2.73;;;1.17;;
3993;SDS011;2011;48.238;13.948;2023-04-24T08:27:33;8.33;;;1.80;;
3993;SDS011;2011;48.238;13.948;2023-04-24T08:30:02;2.70;;;1.30;;
3993;SDS011;2011;48.238;13.948;2023-04-24T08:32:31;1.80;;;1.40;;
3993;SDS011;2011;48.238;13.948;2023-04-24T08:34:58;1.93;;;1.27;;
3993;SDS011;2011;48.238;13.948;2023-04-24T08:37:26;3.13;;;1.20;;
3993;SDS011;2011;48.238;13.948;2023-04-24T08:39:53;8.27;;;1.07;;
3993;SDS011;2011;48.238;13.948;2023-04-24T08:42:21;2.77;;;1.40;;
3993;SDS011;2011;48.238;13.948;2023-04-24T08:44:48;1.83;;;1.10;;
3993;SDS011;2011;48.238;13.948;2023-04-24T08:47:16;2.03;;;1.10;;
3993;SDS011;2011;48.238;13.948;2023-04-24T08:49:46;2.33;;;1.13;;
3993;SDS011;2011;48.238;13.948;2023-04-24T08:52:15;6.33;;;1.30;;
3993;SDS011;2011;48.238;13.948;2023-04-24T08:54:45;3.00;;;1.30;;
3993;SDS011;2011;48.238;13.948;2023-04-24T08:57:12;2.13;;;1.13;;
3993;SDS011;2011;48.238;13.948;2023-04-24T08:59:40;2.30;;;1.20;;
3993;SDS011;2011;48.238;13.948;2023-04-24T09:02:09;2.07;;;1.10;;
3993;SDS011;2011;48.238;13.948;2023-04-24T09:04:37;4.73;;;1.07;;
3993;SDS011;2011;48.238;13.948;2023-04-24T09:07:05;2.67;;;1.00;;
3993;SDS011;2011;48.238;13.948;2023-04-24T09:09:34;1.90;;;1.00;;
3993;SDS011;2011;48.238;13.948;2023-04-24T09:12:02;4.90;;;0.90;;
3993;SDS011;2011;48.238;13.948;2023-04-24T09:14:30;3.80;;;1.20;;
3993;SDS011;2011;48.238;13.948;2023-04-24T09:16:57;3.67;;;0.93;;
3993;SDS011;2011;48.238;13.948;2023-04-24T09:19:24;1.50;;;0.90;;
3993;SDS011;2011;48.238;13.948;2023-04-24T09:21:51;2.33;;;1.30;;
3993;SDS011;2011;48.238;13.948;2023-04-24T09:24:21;4.87;;;1.10;;
3993;SDS011;2011;48.238;13.948;2023-04-24T09:26:48;3.07;;;1.40;;
3993;SDS011;2011;48.238;13.948;2023-04-24T09:29:22;1.93;;;1.00;;
3993;SDS011;2011;48.238;13.948;2023-04-24T09:31:49;2.10;;;1.20;;
3993;SDS011;2011;48.238;13.948;2023-04-24T09:34:20;3.03;;;1.10;;
3993;SDS011;2011;48.238;13.948;2023-04-24T09:36:49;4.23;;;1.10;;
3993;SDS011;2011;48.238;13.948;2023-04-24T09:39:16;3.20;;;1.10;;
3993;SDS011;2011;48.238;13.948;2023-04-24T09:41:47;2.00;;;0.97;;
3993;SDS011;2011;48.238;13.948;2023-04-24T09:44:15;3.60;;;1.10;;
3993;SDS011;2011;48.238;13.948;2023-04-24T09:46:43;4.20;;;1.20;;
3993;SDS011;2011;48.238;13.948;2023-04-24T09:49:13;2.27;;;0.97;;
3993;SDS011;2011;48.238;13.948;2023-04-24T09:51:41;2.00;;;0.97;;
3993;SDS011;2011;48.238;13.948;2023-04-24T09:54:13;8.90;;;1.10;;
3993;SDS011;2011;48.238;13.948;2023-04-24T09:56:42;2.37;;;1.00;;
3993;SDS011;2011;48.238;13.948;2023-04-24T09:59:13;2.80;;;1.10;;
3993;SDS011;2011;48.238;13.948;2023-04-24T10:01:40;1.63;;;0.90;;
3993;SDS011;2011;48.238;13.948;2023-04-24T10:04:16;5.63;;;1.10;;
3993;SDS011;2011;48.238;13.948;2023-04-24T10:06:44;2.10;;;1.20;;
3993;SDS011;2011;48.238;13.948;2023-04-24T10:09:12;1.70;;;1.00;;
3993;SDS011;2011;48.238;13.948;2023-04-24T10:11:41;3.83;;;1.30;;
3993;SDS011;2011;48.238;13.948;2023-04-24T10:14:13;2.13;;;1.00;;
3993;SDS011;2011;48.238;13.948;2023-04-24T10:16:42;2.70;;;1.10;;
3993;SDS011;2011;48.238;13.948;2023-04-24T10:19:09;2.40;;;0.93;;
3993;SDS011;2011;48.238;13.948;2023-04-24T10:21:38;1.80;;;0.90;;
3993;SDS011;2011;48.238;13.948;2023-04-24T10:24:07;9.63;;;0.90;;
3993;SDS011;2011;48.238;13.948;2023-04-24T10:26:35;3.57;;;1.30;;
3993;SDS011;2011;48.238;13.948;2023-04-24T10:29:03;3.00;;;1.20;;
3993;SDS011;2011;48.238;13.948;2023-04-24T10:31:36;3.10;;;1.10;;
3993;SDS011;2011;48.238;13.948;2023-04-24T10:34:03;7.77;;;1.20;;
3993;SDS011;2011;48.238;13.948;2023-04-24T10:36:32;2.07;;;1.00;;
3993;SDS011;2011;48.238;13.948;2023-04-24T10:39:01;3.13;;;1.10;;
3993;SDS011;2011;48.238;13.948;2023-04-24T10:41:33;2.53;;;1.10;;
3993;SDS011;2011;48.238;13.948;2023-04-24T10:44:04;3.00;;;1.20;;
3993;SDS011;2011;48.238;13.948;2023-04-24T10:46:31;3.10;;;1.20;;
3993;SDS011;2011;48.238;13.948;2023-04-24T10:49:00;3.97;;;1.10;;
3993;SDS011;2011;48.238;13.948;2023-04-24T10:54:27;1.87;;;0.90;;
3993;SDS011;2011;48.238;13.948;2023-04-24T11:00:09;3.57;;;1.40;;
3993;SDS011;2011;48.238;13.948;2023-04-24T11:02:40;1.70;;;1.00;;
3993;SDS011;2011;48.238;13.948;2023-04-24T11:05:14;5.33;;;1.30;;
3993;SDS011;2011;48.238;13.948;2023-04-24T11:10:37;6.77;;;1.20;;
3993;SDS011;2011;48.238;13.948;2023-04-24T11:13:05;1.90;;;1.00;;
3993;SDS011;2011;48.238;13.948;2023-04-24T11:15:33;2.03;;;1.13;;
3993;SDS011;2011;48.238;13.948;2023-04-24T11:18:00;2.33;;;1.10;;
3993;SDS011;2011;48.238;13.948;2023-04-24T11:20:28;2.10;;;0.83;;
3993;SDS011;2011;48.238;13.948;2023-04-24T11:22:55;2.87;;;0.87;;
3993;SDS011;2011;48.238;13.948;2023-04-24T11:25:31;2.73;;;0.90;;
3993;SDS011;2011;48.238;13.948;2023-04-24T11:28:05;5.40;;;1.00;;
3993;SDS011;2011;48.238;13.948;2023-04-24T11:30:32;6.00;;;1.23;;
3993;SDS011;2011;48.238;13.948;2023-04-24T11:33:03;3.73;;;1.03;;
3993;SDS011;2011;48.238;13.948;2023-04-24T11:35:35;2.57;;;0.90;;
3993;SDS011;2011;48.238;13.948;2023-04-24T11:38:06;2.60;;;1.13;;
3993;SDS011;2011;48.238;13.948;2023-04-24T11:40:33;2.90;;;1.10;;
3993;SDS011;2011;48.238;13.948;2023-04-24T11:43:00;5.47;;;1.10;;
3993;SDS011;2011;48.238;13.948;2023-04-24T11:45:28;3.00;;;1.30;;
3993;SDS011;2011;48.238;13.948;2023-04-24T11:47:55;3.33;;;1.30;;
3993;SDS011;2011;48.238;13.948;2023-04-24T11:50:24;1.80;;;1.00;;
3993;SDS011;2011;48.238;13.948;2023-04-24T11:52:54;7.00;;;1.17;;
3993;SDS011;2011;48.238;13.948;2023-04-24T11:55:25;2.07;;;1.07;;
3993;SDS011;2011;48.238;13.948;2023-04-24T11:57:53;2.13;;;0.90;;
3993;SDS011;2011;48.238;13.948;2023-04-24T12:00:23;2.97;;;1.30;;
3993;SDS011;2011;48.238;13.948;2023-04-24T12:03:02;3.03;;;0.90;;
3993;SDS011;2011;48.238;13.948;2023-04-24T12:05:32;1.90;;;1.00;;
3993;SDS011;2011;48.238;13.948;2023-04-24T12:08:01;2.70;;;1.10;;
3993;SDS011;2011;48.238;13.948;2023-04-24T12:10:29;1.70;;;0.97;;
3993;SDS011;2011;48.238;13.948;2023-04-24T12:12:57;9.20;;;1.20;;
3993;SDS011;2011;48.238;13.948;2023-04-24T12:15:25;6.93;;;1.10;;
3993;SDS011;2011;48.238;13.948;2023-04-24T12:17:53;1.90;;;1.00;;
3993;SDS011;2011;48.238;13.948;2023-04-24T12:20:26;1.73;;;0.90;;
3993;SDS011;2011;48.238;13.948;2023-04-24T12:22:54;1.70;;;0.90;;
3993;SDS011;2011;48.238;13.948;2023-04-24T12:25:24;2.50;;;1.10;;
3993;SDS011;2011;48.238;13.948;2023-04-24T12:27:53;4.23;;;1.40;;
3993;SDS011;2011;48.238;13.948;2023-04-24T12:30:21;2.93;;;1.17;;
3993;SDS011;2011;48.238;13.948;2023-04-24T12:32:52;1.87;;;0.93;;
3993;SDS011;2011;48.238;13.948;2023-04-24T12:35:20;1.53;;;0.90;;
3993;SDS011;2011;48.238;13.948;2023-04-24T12:37:49;2.50;;;1.50;;
3993;SDS011;2011;48.238;13.948;2023-04-24T12:40:16;10.87;;;1.20;;
3993;SDS011;2011;48.238;13.948;2023-04-24T12:42:47;1.97;;;1.30;;
3993;SDS011;2011;48.238;13.948;2023-04-24T12:45:16;2.10;;;1.40;;
3993;SDS011;2011;48.238;13.948;2023-04-24T12:47:44;3.07;;;1.10;;
3993;SDS011;2011;48.238;13.948;2023-04-24T12:50:12;2.00;;;1.20;;
3993;SDS011;2011;48.238;13.948;2023-04-24T12:52:40;2.07;;;1.40;;
3993;SDS011;2011;48.238;13.948;2023-04-24T12:55:07;2.37;;;1.40;;
3993;SDS011;2011;48.238;13.948;2023-04-24T12:57:35;4.17;;;1.93;;
3993;SDS011;2011;48.238;13.948;2023-04-24T13:00:05;6.43;;;1.77;;
3993;SDS011;2011;48.238;13.948;2023-04-24T13:02:33;2.83;;;1.40;;
3993;SDS011;2011;48.238;13.948;2023-04-24T13:05:01;5.53;;;1.70;;
3993;SDS011;2011;48.238;13.948;2023-04-24T13:07:28;2.93;;;1.83;;
3993;SDS011;2011;48.238;13.948;2023-04-24T13:09:55;2.37;;;1.40;;
3993;SDS011;2011;48.238;13.948;2023-04-24T13:12:23;4.27;;;1.57;;
3993;SDS011;2011;48.238;13.948;2023-04-24T13:14:51;3.47;;;1.80;;
3993;SDS011;2011;48.238;13.948;2023-04-24T13:17:19;2.40;;;1.60;;
3993;SDS011;2011;48.238;13.948;2023-04-24T13:19:49;4.37;;;1.63;;
3993;SDS011;2011;48.238;13.948;2023-04-24T13:22:16;3.57;;;1.77;;
3993;SDS011;2011;48.238;13.948;2023-04-24T13:24:44;3.07;;;1.90;;
3993;SDS011;2011;48.238;13.948;2023-04-24T13:27:13;3.10;;;1.50;;
3993;SDS011;2011;48.238;13.948;2023-04-24T13:29:40;5.50;;;1.83;;
3993;SDS011;2011;48.238;13.948;2023-04-24T13:32:07;4.23;;;1.80;;
3993;SDS011;2011;48.238;13.948;2023-04-24T13:34:36;2.80;;;1.73;;
3993;SDS011;2011;48.238;13.948;2023-04-24T13:37:03;2.90;;;2.03;;
3993;SDS011;2011;48.238;13.948;2023-04-24T13:39:31;4.03;;;1.93;;
3993;SDS011;2011;48.238;13.948;2023-04-24T13:41:58;3.87;;;1.90;;
3993;SDS011;2011;48.238;13.948;2023-04-24T13:44:25;3.20;;;1.70;;
3993;SDS011;2011;48.238;13.948;2023-04-24T13:46:53;4.30;;;2.00;;
3993;SDS011;2011;48.238;13.948;2023-04-24T13:49:22;5.70;;;2.07;;
3993;SDS011;2011;48.238;13.948;2023-04-24T13:51:51;3.23;;;1.80;;
3993;SDS011;2011;48.238;13.948;2023-04-24T13:54:18;2.90;;;1.70;;
3993;SDS011;2011;48.238;13.948;2023-04-24T13:56:45;7.70;;;2.40;;
3993;SDS011;2011;48.238;13.948;2023-04-24T13:59:12;3.23;;;2.03;;
3993;SDS011;2011;48.238;13.948;2023-04-24T14:01:39;4.97;;;1.90;;
3993;SDS011;2011;48.238;13.948;2023-04-24T14:04:06;3.00;;;1.77;;
3993;SDS011;2011;48.238;13.948;2023-04-24T14:06:33;2.97;;;1.87;;
3993;SDS011;2011;48.238;13.948;2023-04-24T14:09:02;2.80;;;1.60;;
3993;SDS011;2011;48.238;13.948;2023-04-24T14:11:29;3.27;;;1.60;;
3993;SDS011;2011;48.238;13.948;2023-04-24T14:13:56;4.20;;;1.63;;
3993;SDS011;2011;48.238;13.948;2023-04-24T14:16:23;6.87;;;2.30;;
3993;SDS011;2011;48.238;13.948;2023-04-24T14:18:50;4.13;;;1.70;;
3993;SDS011;2011;48.238;13.948;2023-04-24T14:21:17;4.60;;;1.87;;
3993;SDS011;2011;48.238;13.948;2023-04-24T14:23:44;4.57;;;2.13;;
3993;SDS011;2011;48.238;13.948;2023-04-24T14:26:12;4.50;;;1.93;;
3993;SDS011;2011;48.238;13.948;2023-04-24T14:28:39;5.43;;;2.07;;
3993;SDS011;2011;48.238;13.948;2023-04-24T14:31:06;3.93;;;1.93;;
3993;SDS011;2011;48.238;13.948;2023-04-24T14:33:33;4.50;;;1.90;;
3993;SDS011;2011;48.238;13.948;2023-04-24T14:36:00;3.00;;;1.63;;
3993;SDS011;2011;48.238;13.948;2023-04-24T14:38:27;16.63;;;1.83;;
3993;SDS011;2011;48.238;13.948;2023-04-24T14:40:54;4.83;;;1.87;;
3993;SDS011;2011;48.238;13.948;2023-04-24T14:43:23;4.53;;;1.90;;
3993;SDS011;2011;48.238;13.948;2023-04-24T14:45:50;3.43;;;1.77;;
3993;SDS011;2011;48.238;13.948;2023-04-24T14:48:17;5.07;;;1.90;;
3993;SDS011;2011;48.238;13.948;2023-04-24T14:50:44;3.20;;;1.70;;
3993;SDS011;2011;48.238;13.948;2023-04-24T14:53:11;4.13;;;1.73;;
3993;SDS011;2011;48.238;13.948;2023-04-24T14:55:37;5.33;;;1.60;;
3993;SDS011;2011;48.238;13.948;2023-04-24T14:58:04;3.60;;;1.70;;
3993;SDS011;2011;48.238;13.948;2023-04-24T15:00:33;3.90;;;1.53;;
3993;SDS011;2011;48.238;13.948;2023-04-24T15:03:00;2.70;;;1.80;;
3993;SDS011;2011;48.238;13.948;2023-04-24T15:05:27;6.13;;;1.60;;
3993;SDS011;2011;48.238;13.948;2023-04-24T15:07:54;2.57;;;1.37;;
3993;SDS011;2011;48.238;13.948;2023-04-24T15:10:20;3.00;;;1.40;;
3993;SDS011;2011;48.238;13.948;2023-04-24T15:12:48;2.57;;;1.60;;